Time;durP1;ratioP1;P1;durP2;ratioP2;P2;SDS_P1;SDS_P2;PMS_P1;PMS_P2;Temp;Humidity;BMP_temperature;BMP_pressure;BME280_temperature;BME280_humidity;BME280_pressure;Samples;Min_cycle;Max_cycle;Signal;HPM_P1;HPM_P2
2022/11/25 00:01:33;;;;;;;33.50;16.57;;;;;;;2.36;100.00;100854.91;5054362;28;20051;-86
2022/11/25 00:04:05;;;;;;;38.57;16.50;;;;;;;2.35;100.00;100851.38;5091181;28;20032;-87
2022/11/25 00:06:35;;;;;;;38.00;18.90;;;;;;;2.32;100.00;100843.53;5071617;28;20043;-86
2022/11/25 00:09:07;;;;;;;31.93;17.90;;;;;;;2.31;100.00;100852.19;5039334;28;20040;-85
2022/11/25 00:11:38;;;;;;;38.20;18.13;;;;;;;2.43;100.00;100848.91;5053329;28;20037;-86
2022/11/25 00:14:13;;;;;;;33.73;17.87;;;;;;;2.27;100.00;100847.81;5056332;28;20106;-86
2022/11/25 00:16:40;;;;;;;34.03;17.10;;;;;;;2.34;100.00;100848.75;5029634;28;20041;-86
2022/11/25 00:19:14;;;;;;;34.72;17.92;;;;;;;2.37;100.00;100847.09;5053688;28;20036;-85
2022/11/25 00:21:41;;;;;;;37.67;17.23;;;;;;;2.38;100.00;100847.97;5052171;28;20105;-85
2022/11/25 00:24:08;;;;;;;36.70;18.03;;;;;;;2.39;100.00;100845.38;5053062;28;20067;-87
2022/11/25 00:26:37;;;;;;;32.73;18.20;;;;;;;2.45;100.00;100852.44;5066736;28;20051;-86
2022/11/25 00:29:05;;;;;;;31.83;17.03;;;;;;;2.44;100.00;100848.94;5055957;28;20040;-85
2022/11/25 00:31:36;;;;;;;31.90;16.57;;;;;;;2.40;100.00;100856.69;5052623;28;20040;-84
2022/11/25 00:34:06;;;;;;;36.37;17.57;;;;;;;2.38;100.00;100848.84;5050069;28;20399;-86
2022/11/25 00:36:36;;;;;;;34.80;17.40;;;;;;;2.45;100.00;100845.47;5035136;28;20524;-85
2022/11/25 00:39:04;;;;;;;32.07;16.67;;;;;;;2.55;100.00;100846.50;5035923;28;20408;-83
2022/11/25 00:44:36;;;;;;;37.00;17.47;;;;;;;2.54;100.00;100845.63;5092277;28;20056;-84
2022/11/25 00:47:14;;;;;;;33.13;16.93;;;;;;;2.56;100.00;100848.25;5040581;28;20495;-84
2022/11/25 00:49:43;;;;;;;32.27;16.10;;;;;;;2.55;100.00;100849.09;5055540;28;20040;-85
2022/11/25 00:52:14;;;;;;;30.13;16.33;;;;;;;2.57;100.00;100846.50;5039522;28;20051;-85
2022/11/25 00:54:40;;;;;;;30.73;15.93;;;;;;;2.52;100.00;100846.44;5057052;28;20040;-85
2022/11/25 00:57:07;;;;;;;28.30;15.27;;;;;;;2.50;100.00;100835.97;5053522;28;20462;-85
2022/11/25 00:59:34;;;;;;;27.53;15.83;;;;;;;2.50;100.00;100832.50;5058009;28;20666;-85
2022/11/25 01:02:00;;;;;;;33.33;15.67;;;;;;;2.50;100.00;100838.59;5065766;28;20036;-85
2022/11/25 01:04:27;;;;;;;34.03;16.43;;;;;;;2.59;100.00;100843.06;5043238;28;20093;-85
2022/11/25 01:06:55;;;;;;;27.80;15.40;;;;;;;2.55;100.00;100846.50;5042231;28;20033;-85
2022/11/25 01:09:22;;;;;;;30.27;15.63;;;;;;;2.53;100.00;100848.22;5096381;28;20062;-84
2022/11/25 01:11:50;;;;;;;32.93;17.40;;;;;;;2.41;100.00;100842.78;5052544;28;20036;-85
2022/11/25 01:14:17;;;;;;;32.10;16.97;;;;;;;2.35;100.00;100837.47;5071852;28;20101;-84
2022/11/25 01:16:44;;;;;;;28.37;15.83;;;;;;;2.51;100.00;100837.72;5063187;28;20044;-85
2022/11/25 01:19:11;;;;;;;28.30;13.70;;;;;;;2.40;100.00;100844.53;5073885;28;20500;-84
2022/11/25 01:21:38;;;;;;;27.07;15.90;;;;;;;2.33;100.00;100854.81;5078340;28;20046;-83
2022/11/25 01:24:05;;;;;;;28.30;15.30;;;;;;;2.24;100.00;100850.34;5066028;28;20047;-83
2022/11/25 01:26:33;;;;;;;28.20;13.43;;;;;;;2.18;100.00;100852.84;5051555;23;20042;-80
2022/11/25 01:29:02;;;;;;;23.87;13.80;;;;;;;2.16;100.00;100850.22;5031051;28;20109;-80
2022/11/25 01:31:32;;;;;;;27.23;14.00;;;;;;;2.15;100.00;100850.19;5036201;28;20456;-80
2022/11/25 01:34:04;;;;;;;25.03;13.60;;;;;;;2.16;100.00;100849.34;5010570;28;20044;-80
2022/11/25 01:36:31;;;;;;;27.20;14.43;;;;;;;2.16;100.00;100846.72;5016125;28;20099;-81
2022/11/25 01:38:59;;;;;;;26.73;14.20;;;;;;;2.21;100.00;100838.16;5004195;28;20394;-81
2022/11/25 01:41:28;;;;;;;26.03;14.47;;;;;;;2.31;100.00;100839.16;5012270;28;20104;-82
2022/11/25 01:44:08;;;;;;;26.77;15.30;;;;;;;2.38;100.00;100827.09;5011151;28;20406;-82
2022/11/25 01:47:00;;;;;;;25.00;14.47;;;;;;;2.30;100.00;100832.19;5027637;28;20049;-80
2022/11/25 01:49:38;;;;;;;26.77;13.20;;;;;;;2.25;100.00;100837.31;5016991;28;20066;-80
2022/11/25 01:52:10;;;;;;;24.03;13.03;;;;;;;2.21;100.00;100843.34;5017157;28;20512;-80
2022/11/25 01:54:58;;;;;;;26.23;14.00;;;;;;;2.11;100.00;100837.97;5015883;28;20096;-80
2022/11/25 01:57:34;;;;;;;26.27;13.80;;;;;;;2.14;100.00;100838.03;5000182;28;20101;-80
2022/11/25 02:00:02;;;;;;;23.80;12.00;;;;;;;2.14;100.00;100836.28;4999264;28;20045;-80
2022/11/25 02:02:29;;;;;;;26.53;14.20;;;;;;;2.20;100.00;100838.13;5006753;28;20107;-80
2022/11/25 02:04:57;;;;;;;27.30;14.17;;;;;;;2.26;100.00;100835.59;5010650;28;20045;-80
2022/11/25 02:07:26;;;;;;;28.83;14.30;;;;;;;2.21;100.00;100838.16;4997551;28;20049;-80
2022/11/25 02:09:54;;;;;;;24.60;12.83;;;;;;;2.29;100.00;100837.41;5009711;28;20038;-80
2022/11/25 02:12:21;;;;;;;27.97;13.97;;;;;;;2.20;100.00;100839.00;5007812;28;20042;-81
2022/11/25 02:14:50;;;;;;;27.83;14.90;;;;;;;2.21;100.00;100839.88;4979981;28;20042;-80
2022/11/25 02:17:16;;;;;;;25.30;13.73;;;;;;;2.19;100.00;100845.06;5010329;28;20045;-82
2022/11/25 02:20:04;;;;;;;26.43;13.67;;;;;;;2.25;100.00;100852.09;5024408;28;20044;-81
2022/11/25 02:22:40;;;;;;;27.93;13.40;;;;;;;2.27;100.00;100850.41;5022481;28;20132;-81
2022/11/25 02:25:28;;;;;;;26.53;14.03;;;;;;;2.26;100.00;100843.41;4998941;28;20045;-80
2022/11/25 02:28:00;;;;;;;27.13;14.30;;;;;;;2.26;100.00;100839.06;4997946;28;20037;-80
2022/11/25 02:30:26;;;;;;;30.10;14.97;;;;;;;2.26;100.00;100833.00;4989930;28;20615;-80
2022/11/25 02:32:53;;;;;;;25.73;13.03;;;;;;;2.23;100.00;100839.03;4997512;28;20130;-81
2022/11/25 02:35:24;;;;;;;27.73;13.77;;;;;;;2.28;100.00;100835.66;5015969;28;20100;-81
2022/11/25 02:37:52;;;;;;;28.27;13.77;;;;;;;2.23;100.00;100830.34;4981958;28;20045;-80
2022/11/25 02:40:19;;;;;;;26.50;13.80;;;;;;;2.21;100.00;100826.84;4999067;28;20053;-82
2022/11/25 02:42:48;;;;;;;32.13;15.20;;;;;;;2.26;100.00;100833.00;5014210;28;20136;-81
2022/11/25 02:45:16;;;;;;;31.07;15.57;;;;;;;2.23;100.00;100833.81;4998928;28;20049;-81
2022/11/25 02:47:43;;;;;;;32.83;16.67;;;;;;;2.25;100.00;100826.91;5013968;28;20045;-80
2022/11/25 02:50:12;;;;;;;45.97;16.70;;;;;;;2.16;100.00;100826.75;5010358;28;20133;-81
2022/11/25 02:52:39;;;;;;;32.37;15.50;;;;;;;2.12;100.00;100830.19;4987291;28;20041;-80
2022/11/25 02:55:05;;;;;;;29.27;15.27;;;;;;;2.11;100.00;100828.44;5049949;28;20545;-81
2022/11/25 02:57:32;;;;;;;30.90;15.73;;;;;;;2.10;100.00;100824.06;5018290;28;20049;-80
2022/11/25 02:59:59;;;;;;;28.17;14.90;;;;;;;2.11;100.00;100831.03;5014258;28;20033;-81
2022/11/25 03:02:25;;;;;;;28.50;15.20;;;;;;;2.22;100.00;100837.28;5014538;28;20064;-80
2022/11/25 03:04:52;;;;;;;29.03;15.03;;;;;;;2.12;100.00;100832.78;4998558;28;20041;-81
2022/11/25 03:07:18;;;;;;;30.13;15.27;;;;;;;2.16;100.00;100842.41;5014524;28;20152;-80
2022/11/25 03:09:45;;;;;;;26.20;14.43;;;;;;;2.19;100.00;100847.69;4994509;28;20034;-80
2022/11/25 03:12:18;;;;;;;36.73;15.67;;;;;;;2.08;100.00;100843.13;5014645;28;20041;-81
2022/11/25 03:14:44;;;;;;;27.53;12.90;;;;;;;2.09;100.00;100840.53;4996547;28;20424;-80
2022/11/25 03:17:11;;;;;;;28.80;13.90;;;;;;;2.05;100.00;100849.16;5030160;28;20034;-80
2022/11/25 03:19:38;;;;;;;26.33;13.03;;;;;;;2.09;100.00;100840.53;4998494;28;20045;-80
2022/11/25 03:22:05;;;;;;;32.33;13.60;;;;;;;2.12;100.00;100844.94;5017580;28;20091;-82
2022/11/25 03:24:32;;;;;;;27.03;13.37;;;;;;;2.29;100.00;100845.22;5003044;28;20096;-82
2022/11/25 03:26:59;;;;;;;26.80;12.47;;;;;;;2.19;100.00;100850.28;4988613;28;20044;-83
2022/11/25 03:29:25;;;;;;;36.50;13.77;;;;;;;2.12;100.00;100844.94;5012114;28;20072;-82
2022/11/25 03:31:52;;;;;;;24.87;12.40;;;;;;;2.12;100.00;100853.63;5013880;28;20235;-82
2022/11/25 03:34:19;;;;;;;32.53;13.90;;;;;;;2.19;100.00;100837.25;5013224;28;20096;-82
2022/11/25 03:36:45;;;;;;;30.63;14.03;;;;;;;2.14;100.00;100838.91;4989690;28;20045;-82
2022/11/25 03:39:12;;;;;;;25.83;13.00;;;;;;;2.17;100.00;100840.66;5014116;28;20047;-83
2022/11/25 03:41:39;;;;;;;22.53;11.27;;;;;;;2.26;100.00;100841.69;4996883;28;20041;-83
2022/11/25 03:44:05;;;;;;;25.03;11.40;;;;;;;2.20;100.00;100839.00;4976752;28;20067;-82
2022/11/25 03:46:32;;;;;;;23.30;11.70;;;;;;;2.19;100.00;100837.25;5010308;28;20040;-82
2022/11/25 03:48:59;;;;;;;34.13;13.23;;;;;;;2.19;100.00;100842.47;4981671;28;20053;-82
2022/11/25 03:51:25;;;;;;;23.23;12.10;;;;;;;2.22;100.00;100845.09;5005270;28;20041;-83
2022/11/25 03:53:52;;;;;;;26.57;13.10;;;;;;;2.18;100.00;100842.41;4995684;28;20038;-82
2022/11/25 03:56:19;;;;;;;19.40;9.93;;;;;;;2.14;100.00;100838.91;4989050;28;20053;-81
2022/11/25 03:58:47;;;;;;;23.70;11.80;;;;;;;2.24;100.00;100845.13;5006828;28;20067;-83
2022/11/25 04:01:13;;;;;;;18.77;10.10;;;;;;;2.22;100.00;100847.72;4999980;28;20487;-83
2022/11/25 04:03:40;;;;;;;18.60;10.30;;;;;;;2.21;100.00;100839.88;4977657;28;20072;-83
2022/11/25 04:06:07;;;;;;;22.93;11.57;;;;;;;2.18;100.00;100837.19;4996906;28;20046;-83
2022/11/25 04:08:34;;;;;;;18.60;9.33;;;;;;;2.41;100.00;100840.19;5010803;28;20042;-83
2022/11/25 04:11:00;;;;;;;22.80;12.23;;;;;;;2.21;100.00;100852.91;4979780;28;20091;-83
2022/11/25 04:13:27;;;;;;;20.37;10.53;;;;;;;2.41;100.00;100856.69;4996043;28;20069;-82
2022/11/25 04:15:54;;;;;;;19.97;10.43;;;;;;;2.25;100.00;100866.00;5013741;28;20513;-83
2022/11/25 04:18:21;;;;;;;20.07;10.90;;;;;;;2.22;100.00;100855.53;4980665;28;20084;-83
2022/11/25 04:20:47;;;;;;;20.23;11.47;;;;;;;2.22;100.00;100847.72;5012401;28;20042;-83
2022/11/25 04:23:14;;;;;;;20.50;10.70;;;;;;;2.25;100.00;100852.09;4981177;28;20046;-83
2022/11/25 04:25:41;;;;;;;19.73;10.33;;;;;;;2.26;100.00;100854.72;4997035;28;20045;-83
2022/11/25 04:28:08;;;;;;;18.97;9.80;;;;;;;2.28;100.00;100853.91;4980489;28;20057;-82
2022/11/25 04:30:36;;;;;;;21.07;10.77;;;;;;;2.26;100.00;100859.94;5029609;28;20034;-83
2022/11/25 04:33:02;;;;;;;21.63;11.50;;;;;;;2.26;100.00;100862.53;4985968;28;20033;-83
2022/11/25 04:35:29;;;;;;;18.73;9.87;;;;;;;2.28;100.00;100873.00;4999424;28;20045;-82
2022/11/25 04:37:56;;;;;;;22.90;11.23;;;;;;;2.28;100.00;100873.00;5014794;28;20075;-83
2022/11/25 04:40:22;;;;;;;28.63;11.13;;;;;;;2.21;100.00;100876.38;5013811;28;20415;-82
2022/11/25 04:42:49;;;;;;;21.43;11.67;;;;;;;2.25;100.00;100873.81;5001944;28;20068;-82
2022/11/25 04:45:16;;;;;;;23.53;11.33;;;;;;;2.27;100.00;100873.88;4999801;28;20052;-83
2022/11/25 04:47:50;;;;;;;16.63;10.27;;;;;;;2.19;100.00;100878.97;5002028;28;20033;-83
2022/11/25 04:50:20;;;;;;;20.00;10.27;;;;;;;2.20;100.00;100875.50;5001859;28;20490;-81
2022/11/25 04:52:46;;;;;;;19.23;11.40;;;;;;;2.23;100.00;100879.88;5011334;28;20056;-82
2022/11/25 04:55:13;;;;;;;24.73;11.60;;;;;;;2.19;100.00;100871.13;5002724;28;20099;-81
2022/11/25 04:57:40;;;;;;;25.27;11.73;;;;;;;2.19;100.00;100873.75;5005670;28;20073;-82
2022/11/25 05:00:08;;;;;;;20.90;10.70;;;;;;;2.39;100.00;100878.41;4982835;28;20045;-82
2022/11/25 05:02:34;;;;;;;20.20;10.43;;;;;;;2.42;100.00;100881.91;5032010;28;20029;-82
2022/11/25 05:05:02;;;;;;;19.43;11.27;;;;;;;2.30;100.00;100878.25;4986192;28;20048;-82
2022/11/25 05:07:29;;;;;;;18.63;10.23;;;;;;;2.21;100.00;100878.97;4996943;28;20041;-82
2022/11/25 05:09:55;;;;;;;20.13;10.50;;;;;;;2.20;100.00;100887.66;5007760;28;20045;-82
2022/11/25 05:12:25;;;;;;;23.33;11.70;;;;;;;2.23;100.00;100879.88;5018702;28;20033;-81
2022/11/25 05:14:52;;;;;;;21.17;10.20;;;;;;;2.21;100.00;100887.66;4989416;28;20038;-80
2022/11/25 05:17:21;;;;;;;22.77;11.87;;;;;;;2.23;100.00;100899.00;5021731;28;20068;-82
2022/11/25 05:19:48;;;;;;;22.67;11.63;;;;;;;2.38;100.00;100902.72;5009776;28;20049;-81
2022/11/25 05:22:17;;;;;;;23.40;12.13;;;;;;;2.39;100.00;100899.25;5020200;28;20057;-81
2022/11/25 05:24:44;;;;;;;21.33;12.13;;;;;;;2.28;100.00;100893.00;5015301;28;20079;-81
2022/11/25 05:27:11;;;;;;;22.07;12.33;;;;;;;2.28;100.00;100898.22;5011035;28;20178;-82
2022/11/25 05:29:37;;;;;;;26.23;12.43;;;;;;;2.34;100.00;100895.69;5000312;28;20058;-82
2022/11/25 05:32:05;;;;;;;19.90;10.60;;;;;;;2.28;100.00;100895.59;4988015;28;20045;-81
2022/11/25 05:34:31;;;;;;;22.53;10.80;;;;;;;2.24;100.00;100898.13;4997882;28;20754;-82
2022/11/25 05:36:58;;;;;;;22.00;11.27;;;;;;;2.23;100.00;100899.00;5020955;28;20458;-81
2022/11/25 05:39:25;;;;;;;20.37;11.27;;;;;;;2.24;100.00;100898.13;4998941;28;20041;-82
2022/11/25 05:41:52;;;;;;;23.87;10.83;;;;;;;2.21;100.00;100903.31;4991714;28;20037;-82
2022/11/25 05:44:18;;;;;;;19.40;10.97;;;;;;;2.19;100.00;100909.34;4998632;28;20568;-79
2022/11/25 05:46:49;;;;;;;24.40;10.70;;;;;;;2.16;100.00;100907.56;4998232;28;20052;-81
2022/11/25 05:49:16;;;;;;;19.37;11.63;;;;;;;2.23;100.00;100906.81;5015713;28;20494;-82
2022/11/25 05:51:43;;;;;;;23.53;11.50;;;;;;;2.13;100.00;100911.84;4996461;28;20037;-78
2022/11/25 05:54:10;;;;;;;21.27;10.57;;;;;;;2.10;100.00;100904.88;4994422;28;20066;-80
2022/11/25 05:56:37;;;;;;;19.30;9.83;;;;;;;2.09;100.00;100903.09;5041957;28;20622;-79
2022/11/25 05:59:05;;;;;;;18.10;10.43;;;;;;;2.04;100.00;100902.13;5004839;28;20100;-80
2022/11/25 06:01:32;;;;;;;22.00;10.10;;;;;;;2.05;100.00;100895.19;5024038;28;20038;-79
2022/11/25 06:04:00;;;;;;;24.03;10.63;;;;;;;2.22;100.00;100904.19;4982456;28;20119;-80
2022/11/25 06:06:27;;;;;;;22.37;10.83;;;;;;;2.29;100.00;100902.56;4978004;28;20041;-81
2022/11/25 06:08:53;;;;;;;32.37;14.10;;;;;;;2.34;100.00;100903.50;4977317;28;20096;-80
2022/11/25 06:11:21;;;;;;;24.97;12.10;;;;;;;2.30;100.00;100897.38;5007870;28;20479;-80
2022/11/25 06:13:47;;;;;;;25.03;11.53;;;;;;;2.19;100.00;100906.75;4993336;28;20052;-79
2022/11/25 06:16:20;;;;;;;22.30;11.97;;;;;;;2.32;100.00;100911.31;5012109;28;20045;-80
2022/11/25 06:18:47;;;;;;;22.67;11.17;;;;;;;2.28;100.00;100919.06;5015479;28;20048;-80
2022/11/25 06:21:14;;;;;;;27.07;12.50;;;;;;;2.28;100.00;100921.66;5028747;28;20042;-80
2022/11/25 06:23:43;;;;;;;23.63;12.03;;;;;;;2.16;100.00;100911.88;4986166;28;20038;-81
2022/11/25 06:26:15;;;;;;;26.87;12.23;;;;;;;2.23;100.00;100917.25;5022591;28;20076;-79
2022/11/25 06:28:43;;;;;;;23.23;11.20;;;;;;;2.18;100.00;100920.59;4977196;28;20045;-80
2022/11/25 06:31:16;;;;;;;23.77;12.87;;;;;;;2.28;100.00;100921.66;4978576;28;20756;-80
2022/11/25 06:33:48;;;;;;;26.93;13.80;;;;;;;2.35;100.00;100924.38;4976079;28;20058;-81
2022/11/25 06:36:18;;;;;;;29.17;14.07;;;;;;;2.36;100.00;100923.56;4976474;28;20047;-81
2022/11/25 06:38:47;;;;;;;26.73;13.37;;;;;;;2.31;100.00;100929.53;4983274;28;20045;-82
2022/11/25 06:41:14;;;;;;;21.80;12.27;;;;;;;2.20;100.00;100919.81;4990186;28;20137;-81
2022/11/25 06:43:41;;;;;;;24.77;13.17;;;;;;;2.21;100.00;100918.94;4985521;28;20530;-81
2022/11/25 06:46:11;;;;;;;28.33;13.67;;;;;;;2.56;100.00;100921.28;4978343;28;20149;-81
2022/11/25 06:48:38;;;;;;;28.30;13.60;;;;;;;2.46;100.00;100927.19;4978856;28;20049;-82
2022/11/25 06:51:10;;;;;;;32.90;13.23;;;;;;;2.40;100.00;100921.88;4990463;28;20566;-81
2022/11/25 06:53:38;;;;;;;27.83;14.07;;;;;;;2.35;100.00;100928.72;4976121;28;20046;-82
2022/11/25 06:56:12;;;;;;;22.23;12.50;;;;;;;2.30;100.00;100923.44;4991381;28;20137;-81
2022/11/25 06:58:39;;;;;;;25.05;13.32;;;;;;;2.33;100.00;100922.59;4978527;28;20046;-82
2022/11/25 07:01:11;;;;;;;25.27;14.07;;;;;;;2.26;100.00;100924.22;4978573;28;20556;-82
2022/11/25 07:03:38;;;;;;;26.63;12.70;;;;;;;2.36;100.00;100930.50;4995125;28;20053;-81
2022/11/25 07:06:05;;;;;;;23.53;13.27;;;;;;;2.45;100.00;100931.53;5011267;28;20096;-81
2022/11/25 07:08:32;;;;;;;23.17;11.60;;;;;;;2.38;100.00;100934.00;4976859;28;20046;-82
2022/11/25 07:11:10;;;;;;;30.57;13.00;;;;;;;2.27;100.00;100933.84;4984440;28;20422;-81
2022/11/25 07:13:37;;;;;;;24.90;12.67;;;;;;;2.41;100.00;100940.13;4976132;28;20718;-82
2022/11/25 07:16:05;;;;;;;27.57;14.40;;;;;;;2.25;100.00;100933.78;4953642;28;20099;-81
2022/11/25 07:18:34;;;;;;;26.63;13.93;;;;;;;2.30;100.00;100935.59;4979046;28;20050;-82
2022/11/25 07:21:22;;;;;;;28.60;13.70;;;;;;;2.18;100.00;100936.25;4994745;28;20507;-81
2022/11/25 07:23:50;;;;;;;24.33;13.30;;;;;;;2.18;100.00;100938.84;4983340;28;20061;-82
2022/11/25 07:26:25;;;;;;;30.87;15.23;;;;;;;2.39;100.00;100939.25;5021643;28;20045;-82
2022/11/25 07:28:53;;;;;;;30.20;15.23;;;;;;;2.51;100.00;100943.78;5031932;22;20041;-86
2022/11/25 07:31:25;;;;;;;28.43;12.23;;;;;;;2.43;100.00;100937.56;5042330;28;20045;-86
2022/11/25 07:34:03;;;;;;;27.63;13.93;;;;;;;2.73;100.00;100947.63;5049275;28;20079;-86
2022/11/25 07:36:31;;;;;;;25.40;14.03;;;;;;;2.66;100.00;100948.38;5032804;28;20139;-86
2022/11/25 07:38:59;;;;;;;32.00;14.47;;;;;;;2.71;100.00;100951.94;5003906;28;20041;-85
2022/11/25 07:41:26;;;;;;;26.23;12.83;;;;;;;2.60;100.00;100950.88;5017488;28;20037;-86
2022/11/25 07:43:55;;;;;;;27.57;13.70;;;;;;;2.74;100.00;100960.69;5050056;28;20073;-86
2022/11/25 07:46:31;;;;;;;36.53;14.47;;;;;;;2.69;100.00;100951.94;5017247;28;20041;-85
2022/11/25 07:49:01;;;;;;;32.90;14.23;;;;;;;2.65;100.00;100955.31;5050141;28;20480;-87
2022/11/25 07:51:31;;;;;;;29.23;13.13;;;;;;;2.70;100.00;100956.28;5000337;28;20041;-85
2022/11/25 07:53:59;;;;;;;29.17;13.47;;;;;;;2.73;100.00;100950.22;5017494;28;20128;-86
2022/11/25 07:56:27;;;;;;;26.70;13.13;;;;;;;2.83;100.00;100953.00;5015927;28;20068;-85
2022/11/25 07:58:55;;;;;;;31.47;13.03;;;;;;;2.81;100.00;100953.84;5055900;28;20469;-84
2022/11/25 08:01:21;;;;;;;25.37;13.63;;;;;;;2.81;100.00;100956.44;5016961;28;20069;-85
2022/11/25 08:03:49;;;;;;;24.37;12.93;;;;;;;2.86;100.00;100960.03;5000863;28;20049;-85
2022/11/25 08:06:21;;;;;;;34.53;14.00;;;;;;;2.99;100.00;100964.56;5033017;28;20048;-86
2022/11/25 08:08:49;;;;;;;25.03;11.87;;;;;;;3.00;100.00;100968.91;5000281;28;20196;-86
2022/11/25 08:11:18;;;;;;;25.33;11.97;;;;;;;3.11;100.00;100958.63;5017940;28;20045;-84
2022/11/25 08:13:45;;;;;;;24.37;12.90;;;;;;;3.06;100.00;100963.81;5038039;28;20083;-84
2022/11/25 08:16:14;;;;;;;32.87;13.53;;;;;;;3.16;100.00;100970.03;5048680;28;20048;-87
2022/11/25 08:18:41;;;;;;;26.13;12.07;;;;;;;3.04;100.00;100973.34;5033120;28;20045;-86
2022/11/25 08:21:09;;;;;;;24.37;13.27;;;;;;;3.15;100.00;100965.66;5015848;28;20452;-86
2022/11/25 08:23:38;;;;;;;28.00;12.87;;;;;;;3.15;100.00;100973.50;5046071;28;20509;-86
2022/11/25 08:26:07;;;;;;;24.33;11.87;;;;;;;3.18;100.00;100975.25;5028914;28;20042;-85
2022/11/25 08:28:35;;;;;;;23.57;11.90;;;;;;;3.27;100.00;100976.28;5009038;28;20098;-85
2022/11/25 08:31:04;;;;;;;20.37;10.60;;;;;;;3.21;100.00;100971.00;5033070;28;20041;-86
2022/11/25 08:33:31;;;;;;;24.23;11.80;;;;;;;3.26;100.00;100969.28;5016918;28;20076;-86
2022/11/25 08:35:59;;;;;;;26.67;13.03;;;;;;;3.43;100.00;100976.50;5030901;28;20056;-85
2022/11/25 08:38:27;;;;;;;24.10;12.13;;;;;;;3.35;100.00;100973.78;5033581;28;20045;-85
2022/11/25 08:40:54;;;;;;;21.83;11.93;;;;;;;3.34;100.00;100980.72;5056747;28;20449;-85
2022/11/25 08:43:21;;;;;;;26.30;12.83;;;;;;;3.39;100.00;100976.47;5032978;28;20041;-84
2022/11/25 08:45:54;;;;;;;41.95;15.95;;;;;;;3.33;100.00;100978.97;5037931;28;20088;-85
2022/11/25 08:48:21;;;;;;;29.90;13.03;;;;;;;3.51;100.00;100974.84;5012268;28;20664;-85
2022/11/25 08:50:51;;;;;;;25.00;12.47;;;;;;;3.45;100.00;100980.00;5048776;28;20539;-85
2022/11/25 08:53:19;;;;;;;24.80;12.13;;;;;;;3.44;100.00;100986.06;5032025;28;20114;-83
2022/11/25 08:55:47;;;;;;;26.87;13.00;;;;;;;3.50;100.00;100983.56;5015274;28;20041;-85
2022/11/25 08:58:13;;;;;;;28.13;12.80;;;;;;;3.62;100.00;100983.72;5048536;28;20110;-86
2022/11/25 09:00:41;;;;;;;23.57;11.60;;;;;;;3.51;100.00;100980.09;4999502;28;20041;-85
2022/11/25 09:03:08;;;;;;;27.77;14.50;;;;;;;3.65;100.00;100975.94;5018231;28;20041;-85
2022/11/25 09:05:39;;;;;;;27.33;12.70;;;;;;;3.73;100.00;100982.13;5045260;28;20049;-85
2022/11/25 09:08:08;;;;;;;20.37;11.03;;;;;;;3.72;100.00;100984.72;5032033;28;20176;-85
2022/11/25 09:10:37;;;;;;;24.20;12.30;;;;;;;3.80;100.00;100989.19;5029442;28;20053;-85
2022/11/25 09:13:04;;;;;;;21.40;12.47;;;;;;;3.78;100.00;100992.63;5030558;28;20048;-84
2022/11/25 09:15:31;;;;;;;20.10;10.53;;;;;;;3.68;100.00;100997.72;5085622;28;20041;-84
2022/11/25 09:18:02;;;;;;;23.27;11.67;;;;;;;3.72;100.00;100992.56;5041200;28;20052;-84
2022/11/25 09:20:31;;;;;;;28.63;13.27;;;;;;;3.67;100.00;100993.38;5014657;28;20044;-85
2022/11/25 09:22:59;;;;;;;23.67;13.40;;;;;;;3.84;100.00;100997.94;5052310;28;20091;-85
2022/11/25 09:25:26;;;;;;;21.00;11.30;;;;;;;3.82;100.00;101002.28;5019070;28;20064;-85
2022/11/25 09:27:54;;;;;;;32.10;13.80;;;;;;;3.73;100.00;100995.19;5059681;28;20033;-84
2022/11/25 09:30:20;;;;;;;38.23;13.70;;;;;;;3.82;100.00;100995.31;5032474;28;20088;-84
2022/11/25 09:32:48;;;;;;;23.07;11.83;;;;;;;3.85;100.00;100990.09;5040935;28;20421;-85
2022/11/25 09:35:16;;;;;;;31.77;14.23;;;;;;;3.87;100.00;100992.75;5011091;28;20521;-84
2022/11/25 09:37:42;;;;;;;30.13;12.20;;;;;;;3.88;100.00;101004.97;5034708;28;20091;-85
2022/11/25 09:40:17;;;;;;;23.30;11.50;;;;;;;3.92;100.00;101012.84;5047557;28;20045;-84
2022/11/25 09:48:55;;;;;;;24.47;12.03;;;;;;;3.99;100.00;100999.84;5034691;28;20037;-84
2022/11/25 09:51:29;;;;;;;24.80;14.17;;;;;;;4.10;100.00;100998.22;5016242;28;20049;-84
2022/11/25 09:53:57;;;;;;;;;;;;;;;3.94;100.00;100992.81;5034439;28;20421;-84
2022/11/25 09:56:26;;;;;;;24.43;11.90;;;;;;;4.15;100.00;101000.06;5050993;28;19932;-84
2022/11/25 09:59:02;;;;;;;24.07;12.70;;;;;;;4.26;100.00;101002.78;5035254;28;20067;-84
2022/11/25 10:01:30;;;;;;;24.17;12.30;;;;;;;4.16;100.00;101006.16;5002703;28;20037;-85
2022/11/25 10:04:12;;;;;;;22.50;12.90;;;;;;;4.29;100.00;100999.31;4999160;28;20048;-84
2022/11/25 10:06:47;;;;;;;26.40;11.97;;;;;;;4.23;100.00;100997.53;5027021;28;20490;-84
2022/11/25 10:09:24;;;;;;;25.27;13.00;;;;;;;4.23;100.00;100998.41;5034193;28;20045;-84
2022/11/25 10:12:05;;;;;;;23.63;13.00;;;;;;;4.41;100.00;101002.94;5036937;28;20044;-84
2022/11/25 10:14:39;;;;;;;23.47;11.70;;;;;;;4.23;100.00;101006.25;4999137;28;20693;-86
2022/11/25 10:17:08;;;;;;;22.58;13.23;;;;;;;4.32;100.00;101004.59;4998906;28;20052;-85
2022/11/25 10:19:53;;;;;;;21.93;12.07;;;;;;;4.32;100.00;101002.84;5031847;28;20049;-84
2022/11/25 10:22:31;;;;;;;21.83;11.93;;;;;;;4.27;100.00;101007.13;5048311;28;20465;-85
2022/11/25 10:25:11;;;;;;;27.83;12.97;;;;;;;4.28;100.00;101005.41;5014932;28;20045;-84
2022/11/25 10:28:03;;;;;;;22.10;12.27;;;;;;;4.23;100.00;101002.75;5018685;28;20078;-83
2022/11/25 10:30:38;;;;;;;28.03;14.50;;;;;;;4.42;100.00;101001.19;5047446;28;20041;-84
2022/11/25 10:33:21;;;;;;;;;;;;;;;4.30;100.00;101003.69;5017648;28;20045;-84
2022/11/25 10:35:51;;;;;;;29.40;15.00;;;;;;;4.30;100.00;101001.09;5034577;28;19921;-85
2022/11/25 10:38:41;;;;;;;29.33;18.00;;;;;;;4.32;100.00;100996.75;5017689;28;20051;-84
2022/11/25 10:41:12;;;;;;;25.97;14.07;;;;;;;4.48;100.00;100993.41;5034356;28;20106;-84
2022/11/25 10:43:40;;;;;;;24.60;13.20;;;;;;;4.64;100.00;100991.81;5014444;28;20041;-83
2022/11/25 10:46:18;;;;;;;24.27;12.17;;;;;;;4.69;100.00;100995.34;5030897;28;20045;-83
2022/11/25 10:49:14;;;;;;;25.77;13.17;;;;;;;4.74;100.00;100988.41;5051059;28;20536;-83
2022/11/25 10:51:49;;;;;;;22.73;12.33;;;;;;;4.71;100.00;100993.63;5051163;28;20041;-83
2022/11/25 10:54:20;;;;;;;28.97;14.10;;;;;;;4.64;100.00;100989.22;5018029;28;20044;-84
2022/11/25 10:57:04;;;;;;;26.17;14.20;;;;;;;4.59;100.00;100989.16;5067255;28;20045;-84
2022/11/25 10:59:33;;;;;;;26.77;15.67;;;;;;;4.50;100.00;100982.09;5051100;28;20652;-84
2022/11/25 11:02:23;;;;;;;26.40;15.47;;;;;;;4.61;100.00;100989.16;5017737;28;20052;-84
2022/11/25 11:04:52;;;;;;;22.13;12.87;;;;;;;4.48;100.00;100981.22;5066665;28;20140;-83
2022/11/25 11:07:19;;;;;;;25.67;13.17;;;;;;;4.47;100.00;100978.59;5025912;28;20090;-85
2022/11/25 11:09:47;;;;;;;23.07;12.27;;;;;;;4.61;100.00;100986.53;5017695;28;20041;-84
2022/11/25 11:12:23;;;;;;;22.93;12.23;;;;;;;4.51;100.00;100993.44;5020222;28;20091;-86
2022/11/25 11:14:51;;;;;;;24.53;14.03;;;;;;;4.39;100.00;100995.94;5019504;28;20037;-85
2022/11/25 11:17:32;;;;;;;22.63;11.60;;;;;;;4.64;100.00;100992.69;5013758;28;20049;-84
2022/11/25 11:20:24;;;;;;;27.55;11.98;;;;;;;4.35;100.00;100986.28;5014844;28;20037;-85
2022/11/25 11:23:00;;;;;;;22.63;13.47;;;;;;;4.39;100.00;100981.13;4997510;28;20091;-84
2022/11/25 11:25:36;;;;;;;21.67;12.10;;;;;;;4.52;100.00;100984.72;5040779;28;20083;-85
2022/11/25 11:28:23;;;;;;;22.57;12.13;;;;;;;4.55;100.00;100982.16;5029542;28;20480;-85
2022/11/25 11:30:59;;;;;;;25.27;12.03;;;;;;;4.65;100.00;100983.97;4977924;28;20041;-84